createdAt,value
2018-08-19T16:03:43.494Z,6.00
2018-08-19T16:06:11.620Z,6.93
2018-08-19T16:08:39.653Z,5.70
2018-08-19T16:11:08.048Z,6.53
2018-08-19T16:13:36.078Z,5.90
2018-08-19T16:16:05.136Z,5.73
2018-08-19T16:18:33.226Z,6.23
2018-08-19T16:21:03.258Z,5.93
2018-08-19T16:23:31.450Z,6.43
2018-08-19T16:25:59.484Z,6.53
2018-08-19T16:28:27.505Z,6.13
2018-08-19T16:30:55.545Z,5.90
2018-08-19T16:33:23.596Z,6.53
2018-08-19T16:35:51.634Z,5.80
2018-08-19T16:38:19.664Z,6.17
2018-08-19T16:40:47.998Z,6.33
2018-08-19T16:43:16.031Z,7.13
2018-08-19T16:45:44.061Z,6.17
2018-08-19T16:48:12.105Z,5.78
2018-08-19T16:50:40.213Z,5.73
2018-08-19T16:53:08.185Z,6.00
2018-08-19T16:55:36.224Z,6.07
2018-08-19T16:58:04.629Z,5.93
2018-08-19T17:00:32.653Z,6.80
2018-08-19T17:03:00.932Z,6.73
2018-08-19T17:05:31.444Z,6.57
2018-08-19T17:07:59.540Z,5.77
2018-08-19T17:10:28.905Z,7.90
2018-08-19T17:12:57.436Z,7.00
2018-08-19T17:15:25.660Z,6.60
2018-08-19T17:17:53.716Z,6.37
2018-08-19T17:20:21.914Z,6.28
2018-08-19T17:22:49.970Z,6.03
2018-08-19T17:25:18.165Z,7.40
2018-08-19T17:27:46.329Z,5.87
2018-08-19T17:30:18.196Z,5.75
2018-08-19T17:32:50.270Z,5.80
2018-08-19T17:35:18.185Z,6.97
2018-08-19T17:37:46.222Z,6.93
2018-08-19T17:40:14.244Z,6.47
2018-08-19T17:42:43.965Z,7.20
2018-08-19T17:45:12.897Z,6.27
2018-08-19T17:47:40.918Z,6.57
2018-08-19T17:50:11.163Z,6.30
2018-08-19T17:52:39.192Z,6.83
2018-08-19T17:55:07.345Z,7.47
2018-08-19T17:57:35.365Z,8.63
2018-08-19T18:00:03.472Z,6.87
2018-08-19T18:02:31.430Z,7.20
2018-08-19T18:04:59.469Z,6.30
2018-08-19T18:07:28.349Z,6.77
2018-08-19T18:09:58.248Z,7.03
2018-08-19T18:12:26.314Z,8.43
2018-08-19T18:14:54.650Z,7.27
2018-08-19T18:17:22.594Z,7.10
2018-08-19T18:19:50.636Z,7.37
2018-08-19T18:22:19.849Z,7.27
2018-08-19T18:24:53.260Z,7.10
2018-08-19T18:27:21.612Z,7.30
2018-08-19T18:29:49.634Z,7.73
2018-08-19T18:32:17.657Z,7.30
2018-08-19T18:34:45.704Z,7.60
2018-08-19T18:37:13.746Z,6.90
2018-08-19T18:39:43.201Z,7.20
2018-08-19T18:42:13.273Z,7.13
2018-08-19T18:44:41.289Z,6.40
2018-08-19T18:47:09.313Z,7.08
2018-08-19T18:49:37.488Z,7.57
2018-08-19T18:52:21.789Z,7.50
2018-08-19T18:54:49.921Z,6.97
2018-08-19T18:57:17.937Z,6.67
2018-08-19T18:59:46.193Z,7.70
2018-08-19T19:02:14.361Z,7.37
2018-08-19T19:04:42.400Z,8.23
2018-08-19T19:07:10.413Z,8.70
2018-08-19T19:09:43.834Z,9.50
2018-08-19T19:12:12.393Z,10.57
2018-08-19T19:14:40.432Z,9.80
2018-08-19T19:17:08.474Z,9.13
2018-08-19T19:19:43.708Z,10.53
2018-08-19T19:22:11.821Z,10.13
2018-08-19T19:24:40.493Z,10.07
2018-08-19T19:27:09.062Z,10.50
2018-08-19T19:29:37.086Z,9.60
2018-08-19T19:32:16.768Z,9.50
2018-08-19T19:34:44.801Z,11.00
2018-08-19T19:37:13.000Z,9.58
2018-08-19T19:39:41.049Z,9.73
2018-08-19T19:42:09.853Z,10.45
2018-08-19T19:44:37.886Z,9.30
2018-08-19T19:47:07.277Z,10.83
2018-08-19T19:49:43.448Z,11.33
2018-08-19T19:52:11.712Z,10.55
2018-08-19T19:54:39.799Z,10.57
2018-08-19T19:57:07.802Z,12.13
2018-08-19T19:59:35.837Z,10.68
2018-08-19T20:02:04.089Z,10.90
2018-08-19T20:04:34.951Z,10.67
2018-08-19T20:07:03.253Z,11.70
2018-08-19T20:09:34.752Z,11.70
2018-08-19T20:12:02.772Z,10.07
2018-08-19T20:14:30.800Z,10.23
2018-08-19T20:16:58.844Z,11.87
2018-08-19T20:19:26.882Z,11.00
2018-08-19T20:21:55.140Z,11.43
2018-08-19T20:24:23.174Z,10.70
2018-08-19T20:26:51.209Z,10.63
2018-08-19T20:29:19.244Z,10.78
2018-08-19T20:31:47.274Z,11.03
2018-08-19T20:34:15.345Z,11.03
2018-08-19T20:36:43.379Z,10.80
2018-08-19T20:39:11.413Z,11.10
2018-08-19T20:41:39.669Z,11.23
2018-08-19T20:44:08.049Z,10.83
2018-08-19T20:46:37.108Z,11.20
2018-08-19T20:49:05.656Z,10.27
2018-08-19T20:51:33.694Z,10.60
2018-08-19T20:54:01.732Z,10.97
2018-08-19T20:56:29.942Z,11.50
2018-08-19T20:58:57.965Z,10.83
2018-08-19T21:01:28.110Z,10.90
2018-08-19T21:03:56.662Z,11.63
2018-08-19T21:06:24.705Z,10.13
2018-08-19T21:08:52.738Z,9.97
2018-08-19T21:11:20.756Z,9.77
2018-08-19T21:13:49.189Z,11.00
2018-08-19T21:16:17.240Z,10.20
2018-08-19T21:18:45.277Z,9.67
2018-08-19T21:21:13.317Z,9.80
2018-08-19T21:23:41.351Z,9.60
2018-08-19T21:26:09.573Z,9.30
2018-08-19T21:28:37.624Z,9.67
2018-08-19T21:31:05.645Z,9.97
2018-08-19T21:33:33.673Z,10.60
2018-08-19T21:36:01.845Z,10.23
2018-08-19T21:38:29.892Z,10.40
2018-08-19T21:40:58.366Z,10.20
2018-08-19T21:43:27.936Z,11.07
2018-08-19T21:45:56.007Z,10.90
2018-08-19T21:48:24.220Z,12.03
2018-08-19T21:50:52.708Z,11.37
2018-08-19T21:53:20.978Z,12.25
2018-08-19T21:55:50.185Z,12.63
2018-08-19T21:58:18.231Z,12.00
2018-08-19T22:00:48.444Z,11.37
2018-08-19T22:03:22.007Z,11.95
2018-08-19T22:05:52.368Z,12.37
2018-08-19T22:08:22.045Z,11.63
2018-08-19T22:10:50.086Z,11.83
2018-08-19T22:13:18.122Z,11.47
2018-08-19T22:15:46.828Z,10.63
2018-08-19T22:18:17.096Z,9.17
2018-08-19T22:20:58.022Z,9.77
2018-08-19T22:23:31.868Z,10.50
2018-08-19T22:26:00.136Z,10.32
2018-08-19T22:28:28.160Z,9.03
2018-08-19T22:30:56.264Z,9.47
2018-08-19T22:33:24.293Z,8.40
2018-08-19T22:35:52.319Z,10.27
2018-08-19T22:38:22.196Z,9.23
2018-08-19T22:40:50.392Z,9.50
2018-08-19T22:43:19.256Z,8.45
2018-08-19T22:45:47.993Z,8.13
2018-08-19T22:48:30.205Z,8.40
2018-08-19T22:50:58.467Z,8.77
2018-08-19T22:53:26.488Z,8.60
2018-08-19T22:55:54.521Z,8.20
2018-08-19T22:58:22.548Z,8.33
2018-08-19T23:00:50.566Z,8.63
2018-08-19T23:03:18.596Z,8.30
2018-08-19T23:05:46.649Z,7.97
2018-08-19T23:08:17.113Z,7.28
2018-08-19T23:10:45.150Z,7.70
2018-08-19T23:13:28.724Z,7.77
2018-08-19T23:15:56.893Z,6.80
2018-08-19T23:18:24.910Z,7.77
2018-08-19T23:20:52.922Z,7.27
2018-08-19T23:23:20.955Z,7.42
2018-08-19T23:25:48.976Z,6.03
2018-08-19T23:28:17.078Z,6.50
2018-08-19T23:30:45.102Z,6.43
2018-08-19T23:33:13.790Z,7.08
2018-08-19T23:35:41.884Z,6.43
2018-08-19T23:38:09.946Z,6.85
2018-08-19T23:40:37.973Z,6.00
2018-08-19T23:43:06.160Z,6.00
2018-08-19T23:45:34.449Z,6.03
2018-08-19T23:48:02.481Z,5.50
2018-08-19T23:50:30.705Z,5.60
2018-08-19T23:52:58.728Z,5.30
2018-08-19T23:55:26.749Z,5.13
2018-08-19T23:57:54.788Z,5.43
